Time;durP1;ratioP1;P1;durP2;ratioP2;P2;SDS_P1;SDS_P2;PMS_P1;PMS_P2;Temp;Humidity;BMP_temperature;BMP_pressure;BME280_temperature;BME280_humidity;BME280_pressure;Samples;Min_cycle;Max_cycle;Signal;HPM_P1;HPM_P2
2022/04/28 00:00:11;;;;;;;13.98;7.05;;;;;;;;;;5088326;28;20036;-82
2022/04/28 00:02:37;;;;;;;15.30;7.43;;;;;;;;;;5071930;28;20549;-82
2022/04/28 00:05:04;;;;;;;19.40;7.80;;;;;;;;;;5088516;28;20040;-82
2022/04/28 00:07:30;;;;;;;15.00;8.40;;;;;;;;;;5055454;28;20044;-82
2022/04/28 00:09:56;;;;;;;15.20;7.45;;;;;;;;;;5088674;28;20071;-82
2022/04/28 00:12:23;;;;;;;18.23;7.95;;;;;;;;;;5088720;28;20070;-82
2022/04/28 00:14:49;;;;;;;19.58;8.50;;;;;;;;;;5088215;28;20541;-82
2022/04/28 00:17:15;;;;;;;14.48;7.75;;;;;;;;;;5089896;28;20043;-82
2022/04/28 00:19:41;;;;;;;19.40;8.40;;;;;;;;;;5055123;28;20044;-82
2022/04/28 00:22:08;;;;;;;17.63;7.68;;;;;;;;;;5072910;28;20052;-82
2022/04/28 00:24:34;;;;;;;13.85;7.70;;;;;;;;;;5071423;28;20079;-82
2022/04/28 00:27:01;;;;;;;17.48;7.10;;;;;;;;;;5088018;28;20048;-82
2022/04/28 00:29:27;;;;;;;18.48;8.30;;;;;;;;;;5091395;28;20035;-82
2022/04/28 00:31:53;;;;;;;18.83;8.15;;;;;;;;;;5092221;28;20056;-82
2022/04/28 00:34:19;;;;;;;18.20;8.52;;;;;;;;;;5075127;28;20491;-82
2022/04/28 00:36:45;;;;;;;18.08;8.05;;;;;;;;;;5091903;28;20127;-82
2022/04/28 00:39:11;;;;;;;27.48;9.48;;;;;;;;;;5091838;28;20402;-82
2022/04/28 00:41:37;;;;;;;21.08;9.00;;;;;;;;;;5092332;28;20047;-82
2022/04/28 00:44:03;;;;;;;18.83;8.77;;;;;;;;;;5074535;28;20093;-82
2022/04/28 00:46:29;;;;;;;21.60;8.32;;;;;;;;;;5075174;28;20055;-82
2022/04/28 00:51:41;;;;;;;22.90;9.15;;;;;;;;;;5091646;28;20048;-82
2022/04/28 00:54:08;;;;;;;25.60;8.70;;;;;;;;;;5091222;28;20146;-82
2022/04/28 00:56:34;;;;;;;20.75;9.88;;;;;;;;;;5092078;28;20407;-82
2022/04/28 00:59:02;;;;;;;16.85;9.20;;;;;;;;;;5091188;28;20115;-82
2022/04/28 01:01:29;;;;;;;22.38;9.18;;;;;;;;;;5093278;28;20540;-82
2022/04/28 01:03:55;;;;;;;17.98;8.93;;;;;;;;;;5091806;28;20043;-82
2022/04/28 01:06:21;;;;;;;19.73;9.02;;;;;;;;;;5074260;28;20051;-82
2022/04/28 01:08:48;;;;;;;19.10;8.20;;;;;;;;;;5091201;28;20071;-82
2022/04/28 01:11:16;;;;;;;21.92;8.65;;;;;;;;;;5091152;28;20040;-82
2022/04/28 01:13:42;;;;;;;17.15;7.70;;;;;;;;;;5091492;28;20454;-82
2022/04/28 01:16:08;;;;;;;15.85;9.05;;;;;;;;;;5090984;28;20040;-82
2022/04/28 01:18:35;;;;;;;17.33;8.35;;;;;;;;;;5092480;28;20115;-82
2022/04/28 01:21:04;;;;;;;20.45;9.02;;;;;;;;;;5091187;28;20048;-82
2022/04/28 01:23:34;;;;;;;19.52;8.85;;;;;;;;;;5091765;28;20403;-82
2022/04/28 01:26:00;;;;;;;22.83;8.48;;;;;;;;;;5090914;28;20048;-83
2022/04/28 01:28:30;;;;;;;18.73;8.82;;;;;;;;;;5090876;28;20504;-82
2022/04/28 01:30:56;;;;;;;18.80;8.63;;;;;;;;;;5091353;28;20409;-82
2022/04/28 01:33:22;;;;;;;21.13;9.10;;;;;;;;;;5090738;28;20108;-83
2022/04/28 01:35:49;;;;;;;17.27;8.70;;;;;;;;;;5091355;28;20036;-82
2022/04/28 01:38:15;;;;;;;16.73;8.57;;;;;;;;;;5074245;28;20051;-82
2022/04/28 01:40:41;;;;;;;20.40;8.63;;;;;;;;;;5089853;28;20303;-82
2022/04/28 01:43:07;;;;;;;17.30;8.05;;;;;;;;;;5090376;28;20047;-82
2022/04/28 01:45:33;;;;;;;17.20;8.52;;;;;;;;;;5057520;28;20043;-82
2022/04/28 01:47:59;;;;;;;19.27;8.93;;;;;;;;;;5090476;28;20105;-82
2022/04/28 01:50:25;;;;;;;17.60;8.30;;;;;;;;;;5073589;28;20131;-83
2022/04/28 01:55:36;;;;;;;18.65;8.45;;;;;;;;;;5092055;28;20442;-83
2022/04/28 01:58:02;;;;;;;19.38;8.30;;;;;;;;;;5073618;28;20056;-82
2022/04/28 02:00:29;;;;;;;18.52;8.63;;;;;;;;;;5073420;28;20044;-82
2022/04/28 02:02:55;;;;;;;16.27;8.95;;;;;;;;;;5059186;28;20036;-82
2022/04/28 02:05:22;;;;;;;18.38;8.90;;;;;;;;;;5097683;28;20043;-82
2022/04/28 02:07:48;;;;;;;22.60;9.13;;;;;;;;;;5103768;28;20410;-82
2022/04/28 02:10:15;;;;;;;18.27;9.07;;;;;;;;;;5096542;28;20036;-82
2022/04/28 02:12:41;;;;;;;17.25;9.07;;;;;;;;;;5098058;28;20471;-82
2022/04/28 02:15:07;;;;;;;19.02;8.85;;;;;;;;;;5107172;28;20035;-82
2022/04/28 02:17:37;;;;;;;16.65;8.90;;;;;;;;;;5076890;28;20044;-82
2022/04/28 02:20:04;;;;;;;18.38;9.05;;;;;;;;;;5101761;28;20048;-82
2022/04/28 02:22:31;;;;;;;16.83;8.30;;;;;;;;;;5095606;28;20031;-82
2022/04/28 02:24:57;;;;;;;16.95;9.27;;;;;;;;;;5104007;28;20491;-82
2022/04/28 02:27:24;;;;;;;19.60;9.00;;;;;;;;;;5086843;28;20085;-82
2022/04/28 02:29:51;;;;;;;15.30;8.05;;;;;;;;;;5094055;28;20040;-82
2022/04/28 02:32:17;;;;;;;18.60;8.07;;;;;;;;;;5096112;28;20082;-82
2022/04/28 02:34:43;;;;;;;17.52;7.93;;;;;;;;;;5063758;28;20483;-82
2022/04/28 02:37:09;;;;;;;12.95;7.55;;;;;;;;;;5078504;28;20093;-82
2022/04/28 02:39:35;;;;;;;12.75;7.30;;;;;;;;;;5088808;28;20506;-82
2022/04/28 02:42:02;;;;;;;14.13;7.38;;;;;;;;;;5093496;28;21247;-82
2022/04/28 02:44:28;;;;;;;15.07;7.28;;;;;;;;;;5093798;28;20032;-82
2022/04/28 02:46:54;;;;;;;15.65;8.15;;;;;;;;;;5098874;28;20038;-82
2022/04/28 02:49:20;;;;;;;18.77;7.72;;;;;;;;;;5101130;28;20499;-82
2022/04/28 02:51:46;;;;;;;18.42;8.60;;;;;;;;;;5087838;28;20040;-82
2022/04/28 02:54:12;;;;;;;14.10;7.93;;;;;;;;;;5090876;28;20035;-82
2022/04/28 02:56:39;;;;;;;17.52;7.63;;;;;;;;;;5095935;28;20251;-81
2022/04/28 02:59:05;;;;;;;11.70;6.43;;;;;;;;;;5096890;28;20478;-81
2022/04/28 03:01:31;;;;;;;13.93;7.07;;;;;;;;;;5096347;28;20036;-82
2022/04/28 03:03:57;;;;;;;16.63;7.95;;;;;;;;;;5086775;28;20035;-82
2022/04/28 03:11:53;;;;;;;13.23;7.15;;;;;;;;;;5094414;28;20093;-82
2022/04/28 03:14:20;;;;;;;17.83;7.03;;;;;;;;;;5093483;28;20051;-82
2022/04/28 03:16:46;;;;;;;16.15;6.78;;;;;;;;;;5100807;28;20384;-82
2022/04/28 03:19:12;;;;;;;11.45;7.03;;;;;;;;;;5068428;28;20042;-82
2022/04/28 03:21:38;;;;;;;16.38;7.30;;;;;;;;;;5079181;28;20035;-82
2022/04/28 03:24:05;;;;;;;11.75;6.28;;;;;;;;;;5100524;28;20040;-82
2022/04/28 03:26:31;;;;;;;13.77;6.70;;;;;;;;;;5096024;28;20461;-82
2022/04/28 03:28:58;;;;;;;12.48;6.32;;;;;;;;;;5105836;28;20482;-82
2022/04/28 03:31:24;;;;;;;14.85;6.57;;;;;;;;;;5100058;28;20036;-82
2022/04/28 03:33:50;;;;;;;12.32;5.97;;;;;;;;;;5101356;28;20074;-81
2022/04/28 03:39:01;;;;;;;14.63;6.00;;;;;;;;;;5092889;28;20040;-81
2022/04/28 03:41:27;;;;;;;12.00;5.95;;;;;;;;;;5083049;28;20036;-81
2022/04/28 03:43:53;;;;;;;15.88;6.03;;;;;;;;;;5099888;28;20032;-82
2022/04/28 03:46:20;;;;;;;14.98;5.45;;;;;;;;;;5096526;28;20403;-82
2022/04/28 03:48:48;;;;;;;11.40;5.45;;;;;;;;;;5064631;28;20043;-81
2022/04/28 03:51:15;;;;;;;14.82;6.47;;;;;;;;;;5097731;28;20048;-81
2022/04/28 03:53:41;;;;;;;13.45;6.60;;;;;;;;;;5100697;28;20032;-81
2022/04/28 03:56:07;;;;;;;12.75;6.75;;;;;;;;;;5078134;28;20551;-81
2022/04/28 03:58:33;;;;;;;14.57;6.38;;;;;;;;;;5089913;28;20032;-81
2022/04/28 04:00:59;;;;;;;15.52;6.55;;;;;;;;;;5087448;28;21316;-81
2022/04/28 04:03:26;;;;;;;14.13;6.32;;;;;;;;;;5103285;28;20372;-81
2022/04/28 04:05:52;;;;;;;12.45;6.53;;;;;;;;;;5095586;28;20040;-81
2022/04/28 04:08:18;;;;;;;11.88;6.18;;;;;;;;;;5093961;28;20119;-81
2022/04/28 04:10:45;;;;;;;14.77;6.40;;;;;;;;;;5085099;28;20040;-81
2022/04/28 04:13:11;;;;;;;16.58;7.00;;;;;;;;;;5086213;28;20130;-81
2022/04/28 04:15:37;;;;;;;15.15;6.95;;;;;;;;;;5094731;28;20035;-81
2022/04/28 04:18:03;;;;;;;12.73;6.28;;;;;;;;;;5098240;28;20044;-81
2022/04/28 04:20:29;;;;;;;13.35;6.82;;;;;;;;;;5082382;28;20062;-81
2022/04/28 04:22:55;;;;;;;11.70;6.25;;;;;;;;;;5096659;28;20047;-81
2022/04/28 04:25:22;;;;;;;17.90;6.70;;;;;;;;;;5094917;28;20395;-81
2022/04/28 04:27:48;;;;;;;12.82;6.57;;;;;;;;;;5074435;28;20672;-80
2022/04/28 04:33:00;;;;;;;12.38;6.90;;;;;;;;;;5093362;28;20122;-81
2022/04/28 04:35:26;;;;;;;12.23;6.45;;;;;;;;;;5098663;28;20046;-82
2022/04/28 04:37:55;;;;;;;16.27;6.65;;;;;;;;;;5088695;28;20046;-81
2022/04/28 04:40:22;;;;;;;14.23;6.78;;;;;;;;;;5092529;28;20177;-81
2022/04/28 04:42:48;;;;;;;19.35;7.32;;;;;;;;;;5086599;28;20046;-81
2022/04/28 04:45:14;;;;;;;15.30;6.78;;;;;;;;;;5098613;28;20039;-81
2022/04/28 04:47:40;;;;;;;14.45;6.82;;;;;;;;;;5083888;28;20387;-81
2022/04/28 04:50:08;;;;;;;15.25;7.20;;;;;;;;;;5097427;28;20051;-81
2022/04/28 04:52:34;;;;;;;11.45;6.05;;;;;;;;;;5099946;28;20364;-81
2022/04/28 04:55:01;;;;;;;13.93;6.90;;;;;;;;;;5103206;28;20042;-81
2022/04/28 04:57:27;;;;;;;13.25;7.18;;;;;;;;;;5086217;28;20043;-81
2022/04/28 04:59:53;;;;;;;13.65;6.50;;;;;;;;;;5080761;28;20039;-81
2022/04/28 05:02:20;;;;;;;12.63;6.60;;;;;;;;;;5102648;28;20078;-81
2022/04/28 05:04:46;;;;;;;14.18;6.10;;;;;;;;;;5097930;28;20055;-81
2022/04/28 05:07:12;;;;;;;15.25;6.70;;;;;;;;;;5097965;28;20048;-81
2022/04/28 05:09:38;;;;;;;12.52;6.50;;;;;;;;;;5085332;28;20434;-81
2022/04/28 05:12:05;;;;;;;11.80;6.20;;;;;;;;;;5099655;28;20036;-81
2022/04/28 05:14:31;;;;;;;14.30;6.53;;;;;;;;;;5095517;28;20089;-81
2022/04/28 05:16:58;;;;;;;15.07;6.82;;;;;;;;;;5098621;28;20119;-81
2022/04/28 05:19:24;;;;;;;16.45;6.75;;;;;;;;;;5100208;28;20046;-81
2022/04/28 05:21:51;;;;;;;17.25;7.00;;;;;;;;;;5085133;28;20036;-81
2022/04/28 05:24:17;;;;;;;15.88;6.35;;;;;;;;;;5075940;28;20495;-81
2022/04/28 05:26:43;;;;;;;12.50;6.28;;;;;;;;;;5097863;28;20044;-81
2022/04/28 05:29:09;;;;;;;13.25;6.57;;;;;;;;;;5096989;28;20043;-81
2022/04/28 05:31:36;;;;;;;17.00;5.82;;;;;;;;;;5120550;27;20050;-80
2022/04/28 05:34:02;;;;;;;13.40;5.18;;;;;;;;;;5099633;28;20139;-81
2022/04/28 05:36:28;;;;;;;13.00;5.00;;;;;;;;;;5109251;28;20181;-81
2022/04/28 05:38:55;;;;;;;12.20;6.20;;;;;;;;;;5097413;28;20039;-81
2022/04/28 05:41:23;;;;;;;15.13;5.40;;;;;;;;;;5083202;28;20313;-81
2022/04/28 05:46:34;;;;;;;12.98;6.13;;;;;;;;;;5109582;28;20387;-81
2022/04/28 05:49:00;;;;;;;15.20;5.63;;;;;;;;;;5100288;28;20517;-81
2022/04/28 05:51:26;;;;;;;10.25;5.38;;;;;;;;;;5098300;28;20031;-81
2022/04/28 05:53:52;;;;;;;10.23;4.78;;;;;;;;;;5089852;28;20032;-81
2022/04/28 05:56:18;;;;;;;11.48;5.15;;;;;;;;;;5061313;28;20376;-81
2022/04/28 05:58:44;;;;;;;10.68;5.25;;;;;;;;;;5078874;28;20028;-81
2022/04/28 06:01:11;;;;;;;12.05;5.43;;;;;;;;;;5096693;28;20463;-81
2022/04/28 06:03:37;;;;;;;9.90;5.70;;;;;;;;;;5104236;28;20103;-81
2022/04/28 06:06:03;;;;;;;11.23;6.10;;;;;;;;;;5104221;28;20051;-81
2022/04/28 06:08:29;;;;;;;11.27;5.57;;;;;;;;;;5085484;28;20109;-81
2022/04/28 06:10:57;;;;;;;12.63;5.95;;;;;;;;;;5101010;28;20032;-81
2022/04/28 06:13:23;;;;;;;12.20;5.45;;;;;;;;;;5092186;28;20043;-81
2022/04/28 06:15:49;;;;;;;12.20;5.65;;;;;;;;;;5099877;28;20039;-81
2022/04/28 06:18:15;;;;;;;14.23;6.15;;;;;;;;;;5099159;28;20529;-81
2022/04/28 06:20:41;;;;;;;15.45;6.18;;;;;;;;;;5105314;28;20457;-81
2022/04/28 06:23:07;;;;;;;17.05;6.40;;;;;;;;;;5102822;28;20044;-81
2022/04/28 06:25:34;;;;;;;12.98;6.15;;;;;;;;;;5101210;28;20040;-81
2022/04/28 06:28:00;;;;;;;16.67;6.72;;;;;;;;;;5060002;28;20063;-81
2022/04/28 06:30:26;;;;;;;13.85;6.68;;;;;;;;;;5101714;28;20040;-81
2022/04/28 06:32:52;;;;;;;11.13;5.30;;;;;;;;;;5103007;28;20055;-81
2022/04/28 06:35:18;;;;;;;13.80;6.20;;;;;;;;;;5098524;28;20491;-81
2022/04/28 06:37:44;;;;;;;14.45;5.28;;;;;;;;;;5077444;28;20459;-81
2022/04/28 06:40:12;;;;;;;10.68;4.63;;;;;;;;;;5098049;28;20040;-81
2022/04/28 06:42:42;;;;;;;11.63;5.00;;;;;;;;;;5096152;28;20051;-81
2022/04/28 06:45:09;;;;;;;9.77;4.30;;;;;;;;;;5098972;28;20514;-81
2022/04/28 06:47:35;;;;;;;8.93;4.40;;;;;;;;;;5088605;28;20445;-81
2022/04/28 06:50:01;;;;;;;10.45;4.60;;;;;;;;;;5085245;28;20050;-81
2022/04/28 06:52:27;;;;;;;10.90;5.38;;;;;;;;;;5080817;28;20032;-81
2022/04/28 06:54:53;;;;;;;9.40;4.78;;;;;;;;;;5093196;28;20035;-81
2022/04/28 06:57:20;;;;;;;13.23;4.88;;;;;;;;;;5105323;28;20046;-81
2022/04/28 06:59:46;;;;;;;8.65;4.78;;;;;;;;;;5091151;28;20046;-81
2022/04/28 07:02:12;;;;;;;10.48;4.72;;;;;;;;;;5083126;28;20479;-81
2022/04/28 07:04:38;;;;;;;11.20;5.30;;;;;;;;;;5095049;28;20042;-81
2022/04/28 07:07:04;;;;;;;10.80;5.20;;;;;;;;;;5102196;28;20031;-80
2022/04/28 07:09:30;;;;;;;13.45;5.22;;;;;;;;;;5101845;28;20040;-81
2022/04/28 07:11:56;;;;;;;14.50;5.40;;;;;;;;;;5097216;28;20035;-81
2022/04/28 07:14:22;;;;;;;12.73;5.25;;;;;;;;;;5097607;28;20381;-81
2022/04/28 07:16:48;;;;;;;10.93;4.78;;;;;;;;;;5100713;28;20048;-81
2022/04/28 07:19:14;;;;;;;11.68;4.93;;;;;;;;;;5107789;28;20092;-81
2022/04/28 07:21:41;;;;;;;12.07;5.03;;;;;;;;;;5100425;28;20368;-81
2022/04/28 07:24:07;;;;;;;12.93;5.63;;;;;;;;;;5095614;28;20058;-81
2022/04/28 07:26:33;;;;;;;14.75;4.80;;;;;;;;;;5095819;28;20036;-76
2022/04/28 07:28:59;;;;;;;14.18;4.68;;;;;;;;;;5088161;28;20356;-77
2022/04/28 07:31:25;;;;;;;10.52;4.90;;;;;;;;;;5083235;28;20036;-77
2022/04/28 07:33:51;;;;;;;11.30;5.13;;;;;;;;;;5078379;28;20047;-77
2022/04/28 07:36:17;;;;;;;12.43;4.60;;;;;;;;;;5087741;28;20471;-77
2022/04/28 07:38:44;;;;;;;12.48;4.57;;;;;;;;;;5105655;28;20043;-77
2022/04/28 07:41:12;;;;;;;11.55;4.35;;;;;;;;;;5106132;28;20559;-77
2022/04/28 07:43:38;;;;;;;12.15;4.53;;;;;;;;;;5088930;28;20048;-77
2022/04/28 07:46:04;;;;;;;13.18;5.28;;;;;;;;;;5107955;28;20479;-77
2022/04/28 07:48:30;;;;;;;11.93;4.72;;;;;;;;;;5098485;28;20040;-77
2022/04/28 07:50:56;;;;;;;9.50;4.57;;;;;;;;;;5088485;28;20036;-77
2022/04/28 07:53:23;;;;;;;10.70;4.22;;;;;;;;;;5087749;28;20180;-77
2022/04/28 07:58:34;;;;;;;11.18;4.20;;;;;;;;;;5088200;28;20438;-77
2022/04/28 08:01:00;;;;;;;11.32;4.80;;;;;;;;;;5094707;28;20035;-77
2022/04/28 08:03:26;;;;;;;15.57;4.68;;;;;;;;;;5101466;28;20146;-77
2022/04/28 08:05:55;;;;;;;12.70;4.10;;;;;;;;;;5091988;28;20036;-77
2022/04/28 08:08:22;;;;;;;8.98;4.50;;;;;;;;;;5095188;28;20067;-77
2022/04/28 08:10:48;;;;;;;12.43;5.10;;;;;;;;;;5090284;28;20128;-77
2022/04/28 08:13:14;;;;;;;10.38;4.22;;;;;;;;;;5104429;28;20051;-80
2022/04/28 08:15:41;;;;;;;10.50;4.38;;;;;;;;;;5088944;28;20043;-80
2022/04/28 08:18:07;;;;;;;9.77;4.72;;;;;;;;;;5063575;28;20047;-81
2022/04/28 08:20:33;;;;;;;10.07;4.63;;;;;;;;;;5102741;28;20040;-80
2022/04/28 08:22:59;;;;;;;10.00;4.85;;;;;;;;;;5094751;28;20039;-84
2022/04/28 08:25:25;;;;;;;14.20;4.80;;;;;;;;;;5097067;28;20484;-80
2022/04/28 08:27:51;;;;;;;10.20;4.03;;;;;;;;;;5059345;28;20050;-80
2022/04/28 08:30:17;;;;;;;11.10;4.60;;;;;;;;;;5093375;28;20044;-79
2022/04/28 08:32:43;;;;;;;13.77;4.60;;;;;;;;;;5101766;28;20051;-81
2022/04/28 08:35:09;;;;;;;11.48;4.10;;;;;;;;;;5104947;28;20079;-79
2022/04/28 08:37:39;;;;;;;10.82;3.70;;;;;;;;;;5095894;28;20032;-81
2022/04/28 08:40:05;;;;;;;9.05;3.97;;;;;;;;;;5094914;28;20447;-81
2022/04/28 08:42:32;;;;;;;9.00;3.83;;;;;;;;;;5087274;28;20130;-81
2022/04/28 08:45:00;;;;;;;8.93;3.80;;;;;;;;;;5094661;28;20036;-81
2022/04/28 08:47:26;;;;;;;6.47;3.33;;;;;;;;;;5088191;28;20043;-81
2022/04/28 08:49:52;;;;;;;10.65;3.97;;;;;;;;;;5076040;28;20131;-80
2022/04/28 08:52:19;;;;;;;10.27;3.83;;;;;;;;;;5072900;28;20126;-79
2022/04/28 08:54:46;;;;;;;10.35;4.18;;;;;;;;;;5097749;28;20039;-79
2022/04/28 08:57:13;;;;;;;13.20;3.60;;;;;;;;;;5097460;28;20036;-80
2022/04/28 08:59:40;;;;;;;12.75;3.58;;;;;;;;;;5093403;28;20399;-80
2022/04/28 09:02:07;;;;;;;9.30;3.95;;;;;;;;;;5073895;28;20075;-81
2022/04/28 09:04:33;;;;;;;9.18;3.95;;;;;;;;;;5104308;28;20035;-81
2022/04/28 09:07:00;;;;;;;9.35;3.80;;;;;;;;;;5092634;28;20468;-80
2022/04/28 09:09:27;;;;;;;8.00;3.10;;;;;;;;;;5080655;28;20074;-83
2022/04/28 09:11:57;;;;;;;11.60;4.20;;;;;;;;;;5088619;28;20039;-80
2022/04/28 09:14:24;;;;;;;8.93;3.40;;;;;;;;;;5103689;28;20036;-80
2022/04/28 09:16:51;;;;;;;8.73;3.33;;;;;;;;;;5105139;28;20042;-80
2022/04/28 09:19:22;;;;;;;10.35;3.42;;;;;;;;;;5094646;28;20060;-80
2022/04/28 09:21:48;;;;;;;9.80;3.97;;;;;;;;;;5099535;28;20124;-81
2022/04/28 09:24:14;;;;;;;7.75;3.40;;;;;;;;;;5107985;28;20047;-81
2022/04/28 09:26:41;;;;;;;10.85;3.50;;;;;;;;;;5110297;28;20084;-81
2022/04/28 09:29:11;;;;;;;5.75;2.85;;;;;;;;;;5102933;28;20551;-80
2022/04/28 09:31:38;;;;;;;8.95;3.13;;;;;;;;;;5088832;28;20055;-80
2022/04/28 09:34:04;;;;;;;8.32;3.05;;;;;;;;;;5102722;28;20051;-81
2022/04/28 09:36:31;;;;;;;8.75;3.35;;;;;;;;;;5107297;28;20483;-82
2022/04/28 09:38:57;;;;;;;7.60;3.25;;;;;;;;;;5091897;28;20032;-81
2022/04/28 09:44:25;;;;;;;7.57;2.88;;;;;;;;;;5059412;28;20056;-79
2022/04/28 09:46:51;;;;;;;10.40;2.85;;;;;;;;;;5094048;28;20047;-80
2022/04/28 09:49:19;;;;;;;6.47;2.88;;;;;;;;;;5097619;28;20128;-80
2022/04/28 09:51:46;;;;;;;6.00;2.65;;;;;;;;;;5088442;28;20063;-79
2022/04/28 09:54:13;;;;;;;8.20;2.72;;;;;;;;;;5088781;28;20484;-81
2022/04/28 09:56:40;;;;;;;8.13;2.88;;;;;;;;;;5108326;28;20900;-81
2022/04/28 09:59:09;;;;;;;10.15;2.70;;;;;;;;;;5089416;28;20048;-80
2022/04/28 10:01:37;;;;;;;9.00;2.20;;;;;;;;;;5077779;28;20079;-80
2022/04/28 10:04:03;;;;;;;5.55;2.47;;;;;;;;;;5087823;28;20039;-80
2022/04/28 10:06:33;;;;;;;9.48;2.70;;;;;;;;;;5088661;28;20472;-81
2022/04/28 10:09:00;;;;;;;7.35;2.40;;;;;;;;;;5104642;28;20445;-81
2022/04/28 10:11:27;;;;;;;7.55;2.17;;;;;;;;;;5074491;28;20491;-80
2022/04/28 10:13:53;;;;;;;7.18;2.30;;;;;;;;;;5089746;28;20131;-80
2022/04/28 10:16:22;;;;;;;6.88;2.60;;;;;;;;;;5094301;28;20036;-80
2022/04/28 10:18:54;;;;;;;6.55;2.13;;;;;;;;;;5096769;28;20391;-82
2022/04/28 10:21:22;;;;;;;5.65;2.30;;;;;;;;;;5089159;28;20040;-81
2022/04/28 10:32:24;;;;;;;6.25;2.25;;;;;;;;;;5088069;28;20051;-81
2022/04/28 10:35:08;;;;;;;6.43;2.22;;;;;;;;;;5100371;28;20510;-80
2022/04/28 10:37:36;;;;;;;13.05;2.30;;;;;;;;;;5103925;28;20140;-82
2022/04/28 10:40:03;;;;;;;7.10;2.20;;;;;;;;;;5095985;28;20491;-81
2022/04/28 10:42:30;;;;;;;7.78;2.42;;;;;;;;;;5101163;28;20035;-81
2022/04/28 10:45:04;;;;;;;5.53;2.10;;;;;;;;;;5088109;28;20391;-82
2022/04/28 10:47:30;;;;;;;9.30;2.80;;;;;;;;;;5095633;28;20072;-81
2022/04/28 10:49:57;;;;;;;5.90;2.15;;;;;;;;;;5079398;28;20067;-81
2022/04/28 10:52:24;;;;;;;7.22;2.33;;;;;;;;;;5084979;28;20110;-82
2022/04/28 10:54:54;;;;;;;7.45;2.05;;;;;;;;;;5092269;28;20399;-81
2022/04/28 10:57:28;;;;;;;5.40;2.17;;;;;;;;;;5108324;28;20042;-81
2022/04/28 10:59:55;;;;;;;7.80;2.30;;;;;;;;;;5082535;28;20040;-84
2022/04/28 11:02:21;;;;;;;6.05;1.95;;;;;;;;;;5091788;28;20047;-80
2022/04/28 11:05:01;;;;;;;8.57;2.20;;;;;;;;;;5098305;28;20561;-81
2022/04/28 11:07:29;;;;;;;7.72;2.20;;;;;;;;;;5070539;28;20089;-81
2022/04/28 11:10:00;;;;;;;6.90;2.10;;;;;;;;;;5107542;28;20067;-81
2022/04/28 11:12:33;;;;;;;7.47;2.00;;;;;;;;;;5087142;28;20028;-81
2022/04/28 11:15:10;;;;;;;6.78;2.30;;;;;;;;;;5076257;28;20055;-81
2022/04/28 11:17:37;;;;;;;10.20;2.05;;;;;;;;;;5112069;27;20036;-81
2022/04/28 11:20:07;;;;;;;7.88;2.30;;;;;;;;;;5092489;28;20059;-81
2022/04/28 11:22:33;;;;;;;6.15;2.00;;;;;;;;;;5070292;28;20420;-81
2022/04/28 11:24:59;;;;;;;8.35;2.05;;;;;;;;;;5097827;28;20035;-82
2022/04/28 11:27:27;;;;;;;7.93;2.22;;;;;;;;;;5087123;28;20032;-81
2022/04/28 11:29:57;;;;;;;6.70;1.90;;;;;;;;;;5093056;28;20080;-80
2022/04/28 11:32:24;;;;;;;7.60;1.92;;;;;;;;;;5068069;28;20055;-81
2022/04/28 11:34:52;;;;;;;5.88;1.90;;;;;;;;;;5066392;28;20405;-83
2022/04/28 11:37:23;;;;;;;8.77;2.13;;;;;;;;;;5074775;28;20123;-83
2022/04/28 11:39:51;;;;;;;5.75;2.03;;;;;;;;;;5088203;28;20040;-87
2022/04/28 11:42:18;;;;;;;8.10;2.05;;;;;;;;;;5071731;28;20043;-83
2022/04/28 11:44:46;;;;;;;6.53;2.35;;;;;;;;;;5072285;28;20044;-85
2022/04/28 11:47:12;;;;;;;7.50;2.13;;;;;;;;;;5053052;28;20048;-82
2022/04/28 11:49:41;;;;;;;8.60;2.42;;;;;;;;;;5073629;28;20058;-83
2022/04/28 11:52:24;;;;;;;6.05;2.28;;;;;;;;;;5064524;28;20508;-85
2022/04/28 11:55:01;;;;;;;9.68;2.88;;;;;;;;;;5082540;28;20075;-83
2022/04/28 11:57:27;;;;;;;6.07;2.40;;;;;;;;;;5079409;28;20278;-82
2022/04/28 11:59:54;;;;;;;8.07;2.45;;;;;;;;;;5068971;28;20041;-84
2022/04/28 12:02:34;;;;;;;10.32;2.78;;;;;;;;;;5085729;28;20036;-87
2022/04/28 12:05:01;;;;;;;11.32;2.92;;;;;;;;;;5072270;28;21152;-84
2022/04/28 12:07:32;;;;;;;8.85;2.90;;;;;;;;;;5084548;28;20500;-85
2022/04/28 12:15:28;;;;;;;9.82;3.13;;;;;;;;;;5071913;28;20040;-82
2022/04/28 12:20:49;;;;;;;8.90;3.13;;;;;;;;;;5080161;28;20123;-82
2022/04/28 12:23:32;;;;;;;7.68;2.72;;;;;;;;;;5078707;28;20510;-84
2022/04/28 12:26:02;;;;;;;9.15;2.80;;;;;;;;;;5075147;28;20036;-83
2022/04/28 12:28:32;;;;;;;7.57;3.00;;;;;;;;;;5090705;28;20047;-84
2022/04/28 12:30:59;;;;;;;8.07;3.15;;;;;;;;;;5082060;28;20048;-85
2022/04/28 12:33:29;;;;;;;7.93;3.05;;;;;;;;;;5084647;28;20052;-85
2022/04/28 12:35:59;;;;;;;9.18;3.15;;;;;;;;;;5075700;28;20115;-83
2022/04/28 12:38:26;;;;;;;8.70;3.63;;;;;;;;;;5078705;28;20054;-85
2022/04/28 12:40:53;;;;;;;10.90;3.40;;;;;;;;;;5058843;28;20430;-84
2022/04/28 12:43:37;;;;;;;8.40;3.60;;;;;;;;;;5082799;28;20519;-81
2022/04/28 12:46:03;;;;;;;9.02;3.28;;;;;;;;;;5079821;28;20039;-83
2022/04/28 12:48:34;;;;;;;9.20;3.40;;;;;;;;;;5081154;28;20036;-85
2022/04/28 12:51:13;;;;;;;8.85;3.47;;;;;;;;;;5081951;28;20036;-85
2022/04/28 12:53:41;;;;;;;8.90;3.35;;;;;;;;;;5078022;28;20063;-85
2022/04/28 12:56:12;;;;;;;11.95;3.78;;;;;;;;;;5081193;28;20149;-83
2022/04/28 12:58:43;;;;;;;10.00;4.00;;;;;;;;;;5086549;28;20119;-84
2022/04/28 13:01:10;;;;;;;11.02;4.30;;;;;;;;;;5079049;28;20036;-83
2022/04/28 13:03:36;;;;;;;10.90;4.15;;;;;;;;;;5078858;28;20032;-84
2022/04/28 13:06:04;;;;;;;9.10;3.80;;;;;;;;;;5081592;28;20047;-86
2022/04/28 13:08:31;;;;;;;10.20;4.05;;;;;;;;;;5059629;28;20488;-84
2022/04/28 13:10:57;;;;;;;7.57;3.42;;;;;;;;;;5064262;28;20043;-87
2022/04/28 13:13:23;;;;;;;11.00;3.60;;;;;;;;;;5081476;28;20038;-84
2022/04/28 13:15:49;;;;;;;10.45;3.92;;;;;;;;;;5085405;28;20487;-86
2022/04/28 13:18:15;;;;;;;8.32;3.70;;;;;;;;;;5058313;28;20044;-83
2022/04/28 13:20:41;;;;;;;9.77;4.00;;;;;;;;;;5072812;28;20522;-83
2022/04/28 13:23:07;;;;;;;8.63;3.28;;;;;;;;;;5069926;28;20041;-84
2022/04/28 13:25:33;;;;;;;6.97;3.50;;;;;;;;;;5081756;28;20115;-83
2022/04/28 13:27:59;;;;;;;11.13;3.38;;;;;;;;;;5074052;28;20127;-84
2022/04/28 13:30:26;;;;;;;10.55;3.72;;;;;;;;;;5084295;28;20090;-84
2022/04/28 13:32:52;;;;;;;10.60;3.85;;;;;;;;;;5073290;28;20134;-86
2022/04/28 13:35:18;;;;;;;13.02;3.85;;;;;;;;;;5071535;28;20493;-83
2022/04/28 13:37:44;;;;;;;9.73;3.60;;;;;;;;;;5077537;28;20068;-85
2022/04/28 13:40:10;;;;;;;8.70;3.30;;;;;;;;;;5069093;28;20033;-83
2022/04/28 13:42:36;;;;;;;9.50;3.13;;;;;;;;;;5069380;28;20040;-88
2022/04/28 13:45:03;;;;;;;10.00;3.40;;;;;;;;;;5081714;28;20075;-86
2022/04/28 13:47:29;;;;;;;8.32;3.05;;;;;;;;;;5077170;28;20036;-83
2022/04/28 13:49:58;;;;;;;8.90;3.30;;;;;;;;;;5052317;28;20098;-85
2022/04/28 13:52:24;;;;;;;9.20;3.17;;;;;;;;;;5069172;28;20036;-83
2022/04/28 13:54:50;;;;;;;11.52;3.10;;;;;;;;;;5056658;28;20036;-86
2022/04/28 13:57:17;;;;;;;7.45;3.22;;;;;;;;;;5074714;28;20066;-86
2022/04/28 13:59:43;;;;;;;9.27;3.13;;;;;;;;;;5064473;28;20040;-84
2022/04/28 14:02:09;;;;;;;10.93;3.08;;;;;;;;;;5057706;28;20183;-83
2022/04/28 14:04:35;;;;;;;8.38;3.47;;;;;;;;;;5057831;28;20074;-85
2022/04/28 14:07:01;;;;;;;9.52;3.00;;;;;;;;;;5076934;28;20043;-86
2022/04/28 14:09:27;;;;;;;8.18;3.08;;;;;;;;;;5079926;28;20493;-85
2022/04/28 14:11:55;;;;;;;12.40;2.72;;;;;;;;;;5069893;28;20078;-83
2022/04/28 14:14:22;;;;;;;8.07;2.92;;;;;;;;;;5072214;28;20044;-85
2022/04/28 14:16:48;;;;;;;9.43;3.42;;;;;;;;;;5077803;28;20059;-88
2022/04/28 14:19:16;;;;;;;12.07;3.33;;;;;;;;;;5076446;28;20509;-87
2022/04/28 14:21:42;;;;;;;8.98;2.95;;;;;;;;;;5043119;28;20391;-84
2022/04/28 14:24:09;;;;;;;8.82;3.25;;;;;;;;;;5072130;28;20073;-84
2022/04/28 14:26:38;;;;;;;11.30;3.75;;;;;;;;;;5070511;28;20476;-86
2022/04/28 14:29:04;;;;;;;11.68;3.47;;;;;;;;;;5074971;28;20033;-84
2022/04/28 14:31:31;;;;;;;11.18;3.35;;;;;;;;;;5063606;28;20033;-83
2022/04/28 14:33:57;;;;;;;10.05;3.08;;;;;;;;;;5061227;28;20124;-84
2022/04/28 14:36:23;;;;;;;10.25;3.85;;;;;;;;;;5071533;28;20044;-86
2022/04/28 14:38:50;;;;;;;8.48;3.05;;;;;;;;;;5079132;28;20035;-87
2022/04/28 14:41:16;;;;;;;9.23;3.17;;;;;;;;;;5085138;28;20066;-85
2022/04/28 14:43:42;;;;;;;10.25;3.22;;;;;;;;;;5064664;28;20036;-85
2022/04/28 14:46:08;;;;;;;10.68;3.58;;;;;;;;;;5056711;28;20385;-83
2022/04/28 14:52:19;;;;;;;8.63;3.50;;;;;;;;;;5075059;28;20109;-87
2022/04/28 14:54:05;;;;;;;9.60;3.47;;;;;;;;;;5077590;28;20071;-82
2022/04/28 14:56:31;;;;;;;10.90;3.30;;;;;;;;;;5077017;28;20039;-83
2022/04/28 14:58:57;;;;;;;11.50;3.60;;;;;;;;;;5077995;28;20083;-85
2022/04/28 15:01:23;;;;;;;10.18;3.25;;;;;;;;;;5088277;28;20549;-84
2022/04/28 15:03:49;;;;;;;13.20;3.10;;;;;;;;;;5079055;28;20036;-83
2022/04/28 15:06:15;;;;;;;13.15;3.88;;;;;;;;;;5078556;28;20135;-82
2022/04/28 15:08:42;;;;;;;10.88;3.30;;;;;;;;;;5070796;28;20472;-83
2022/04/28 15:11:08;;;;;;;9.52;3.00;;;;;;;;;;5071304;28;20043;-83
2022/04/28 15:13:35;;;;;;;9.25;3.28;;;;;;;;;;5071922;28;20107;-83
2022/04/28 15:16:01;;;;;;;9.43;3.20;;;;;;;;;;5072147;28;20041;-83